sensor_id;sensor_type;location;lat;lon;timestamp;P1;durP1;ratioP1;P2;durP2;ratioP2
27999;SDS011;15328;50.860;10.562;2024-03-23T00:56:48;18.40;;;11.40;;
27999;SDS011;15328;50.860;10.562;2024-03-23T01:01:48;17.58;;;11.23;;
27999;SDS011;15328;50.860;10.562;2024-03-23T01:06:48;18.55;;;11.32;;
27999;SDS011;15328;50.860;10.562;2024-03-23T01:11:49;20.23;;;11.63;;
27999;SDS011;15328;50.860;10.562;2024-03-23T01:16:49;21.03;;;12.27;;
27999;SDS011;15328;50.860;10.562;2024-03-23T01:21:50;25.60;;;15.65;;
27999;SDS011;15328;50.860;10.562;2024-03-23T01:26:50;24.33;;;15.17;;
27999;SDS011;15328;50.860;10.562;2024-03-23T01:31:50;24.47;;;14.87;;
27999;SDS011;15328;50.860;10.562;2024-03-23T01:36:51;27.58;;;16.33;;
27999;SDS011;15328;50.860;10.562;2024-03-23T01:41:51;27.90;;;17.13;;
27999;SDS011;15328;50.860;10.562;2024-03-23T01:46:53;28.80;;;16.70;;
27999;SDS011;15328;50.860;10.562;2024-03-23T01:51:55;29.02;;;17.08;;
27999;SDS011;15328;50.860;10.562;2024-03-23T01:56:55;26.50;;;17.17;;
27999;SDS011;15328;50.860;10.562;2024-03-23T02:01:56;25.27;;;16.63;;
27999;SDS011;15328;50.860;10.562;2024-03-23T02:06:56;25.38;;;16.70;;
27999;SDS011;15328;50.860;10.562;2024-03-23T02:11:56;25.93;;;16.10;;
27999;SDS011;15328;50.860;10.562;2024-03-23T02:16:57;29.65;;;19.08;;
27999;SDS011;15328;50.860;10.562;2024-03-23T02:21:57;31.33;;;18.42;;
27999;SDS011;15328;50.860;10.562;2024-03-23T02:26:58;28.85;;;18.15;;
27999;SDS011;15328;50.860;10.562;2024-03-23T02:31:58;28.42;;;17.63;;
27999;SDS011;15328;50.860;10.562;2024-03-23T02:36:59;26.08;;;16.85;;
27999;SDS011;15328;50.860;10.562;2024-03-23T02:41:59;27.02;;;16.02;;
27999;SDS011;15328;50.860;10.562;2024-03-23T02:46:59;25.57;;;16.27;;
27999;SDS011;15328;50.860;10.562;2024-03-23T02:52:00;26.75;;;15.90;;
27999;SDS011;15328;50.860;10.562;2024-03-23T02:57:00;27.75;;;17.40;;
27999;SDS011;15328;50.860;10.562;2024-03-23T03:02:01;30.90;;;19.80;;
27999;SDS011;15328;50.860;10.562;2024-03-23T03:07:01;29.77;;;18.67;;
27999;SDS011;15328;50.860;10.562;2024-03-23T03:12:01;32.33;;;19.00;;
27999;SDS011;15328;50.860;10.562;2024-03-23T03:17:03;31.20;;;19.80;;
27999;SDS011;15328;50.860;10.562;2024-03-23T03:22:03;30.77;;;18.55;;
27999;SDS011;15328;50.860;10.562;2024-03-23T03:27:04;31.50;;;18.98;;
27999;SDS011;15328;50.860;10.562;2024-03-23T03:32:06;28.88;;;18.98;;
27999;SDS011;15328;50.860;10.562;2024-03-23T03:37:07;32.03;;;19.58;;
27999;SDS011;15328;50.860;10.562;2024-03-23T03:42:07;28.15;;;17.70;;
27999;SDS011;15328;50.860;10.562;2024-03-23T03:47:07;26.05;;;16.30;;
27999;SDS011;15328;50.860;10.562;2024-03-23T03:52:08;25.52;;;16.00;;
27999;SDS011;15328;50.860;10.562;2024-03-23T03:57:08;28.38;;;17.42;;
27999;SDS011;15328;50.860;10.562;2024-03-23T04:02:09;36.70;;;21.70;;
27999;SDS011;15328;50.860;10.562;2024-03-23T04:07:09;32.30;;;20.37;;
27999;SDS011;15328;50.860;10.562;2024-03-23T04:12:09;35.33;;;22.07;;
27999;SDS011;15328;50.860;10.562;2024-03-23T04:17:10;37.47;;;22.00;;
27999;SDS011;15328;50.860;10.562;2024-03-23T04:22:10;32.17;;;20.37;;
27999;SDS011;15328;50.860;10.562;2024-03-23T04:27:10;32.92;;;20.63;;
27999;SDS011;15328;50.860;10.562;2024-03-23T04:32:11;29.83;;;18.53;;
27999;SDS011;15328;50.860;10.562;2024-03-23T04:37:11;31.27;;;18.07;;
27999;SDS011;15328;50.860;10.562;2024-03-23T04:42:15;22.50;;;14.25;;
27999;SDS011;15328;50.860;10.562;2024-03-23T04:47:16;22.38;;;14.38;;
27999;SDS011;15328;50.860;10.562;2024-03-23T04:52:17;22.75;;;14.02;;
27999;SDS011;15328;50.860;10.562;2024-03-23T04:57:17;25.73;;;15.05;;
27999;SDS011;15328;50.860;10.562;2024-03-23T05:02:18;22.67;;;14.52;;
27999;SDS011;15328;50.860;10.562;2024-03-23T05:07:18;22.77;;;14.57;;
27999;SDS011;15328;50.860;10.562;2024-03-23T05:12:19;24.48;;;15.90;;
27999;SDS011;15328;50.860;10.562;2024-03-23T05:17:19;34.30;;;19.93;;
27999;SDS011;15328;50.860;10.562;2024-03-23T05:22:19;30.83;;;18.87;;
27999;SDS011;15328;50.860;10.562;2024-03-23T05:27:20;37.20;;;21.40;;
27999;SDS011;15328;50.860;10.562;2024-03-23T05:32:20;34.35;;;20.08;;
27999;SDS011;15328;50.860;10.562;2024-03-23T05:37:21;33.05;;;20.13;;
27999;SDS011;15328;50.860;10.562;2024-03-23T05:42:22;36.72;;;21.83;;
27999;SDS011;15328;50.860;10.562;2024-03-23T05:47:23;23.60;;;14.43;;
27999;SDS011;15328;50.860;10.562;2024-03-23T05:52:23;13.65;;;8.32;;
27999;SDS011;15328;50.860;10.562;2024-03-23T05:57:25;8.02;;;4.78;;
27999;SDS011;15328;50.860;10.562;2024-03-23T06:02:25;5.88;;;3.70;;
27999;SDS011;15328;50.860;10.562;2024-03-23T06:07:26;5.07;;;3.10;;
27999;SDS011;15328;50.860;10.562;2024-03-23T06:12:27;3.88;;;2.53;;
27999;SDS011;15328;50.860;10.562;2024-03-23T06:17:27;3.80;;;2.22;;
27999;SDS011;15328;50.860;10.562;2024-03-23T06:22:27;1.92;;;1.42;;
27999;SDS011;15328;50.860;10.562;2024-03-23T06:27:28;2.50;;;1.57;;
27999;SDS011;15328;50.860;10.562;2024-03-23T06:32:29;2.20;;;1.40;;
27999;SDS011;15328;50.860;10.562;2024-03-23T06:37:29;2.67;;;1.77;;
27999;SDS011;15328;50.860;10.562;2024-03-23T06:42:29;2.87;;;2.20;;
27999;SDS011;15328;50.860;10.562;2024-03-23T06:47:30;3.67;;;1.38;;
27999;SDS011;15328;50.860;10.562;2024-03-23T06:52:30;2.42;;;1.13;;
27999;SDS011;15328;50.860;10.562;2024-03-23T06:57:31;1.75;;;0.90;;
27999;SDS011;15328;50.860;10.562;2024-03-23T07:02:31;1.20;;;0.80;;
27999;SDS011;15328;50.860;10.562;2024-03-23T07:07:32;0.93;;;0.47;;
27999;SDS011;15328;50.860;10.562;2024-03-23T07:12:32;0.70;;;0.40;;
27999;SDS011;15328;50.860;10.562;2024-03-23T07:17:32;0.40;;;0.30;;
27999;SDS011;15328;50.860;10.562;2024-03-23T07:22:35;1.35;;;0.30;;
27999;SDS011;15328;50.860;10.562;2024-03-23T07:27:35;2.43;;;0.20;;
27999;SDS011;15328;50.860;10.562;2024-03-23T07:32:35;0.20;;;0.20;;
27999;SDS011;15328;50.860;10.562;2024-03-23T07:37:36;0.22;;;0.20;;
27999;SDS011;15328;50.860;10.562;2024-03-23T07:42:36;0.20;;;0.20;;
27999;SDS011;15328;50.860;10.562;2024-03-23T07:47:37;0.77;;;0.30;;
27999;SDS011;15328;50.860;10.562;2024-03-23T07:52:37;1.27;;;0.20;;
27999;SDS011;15328;50.860;10.562;2024-03-23T07:57:37;0.20;;;0.20;;
27999;SDS011;15328;50.860;10.562;2024-03-23T08:02:38;19.83;;;7.55;;
27999;SDS011;15328;50.860;10.562;2024-03-23T08:07:38;16.13;;;7.68;;
27999;SDS011;15328;50.860;10.562;2024-03-23T08:12:38;28.40;;;11.93;;
27999;SDS011;15328;50.860;10.562;2024-03-23T08:17:39;0.83;;;0.50;;
27999;SDS011;15328;50.860;10.562;2024-03-23T08:22:39;5.20;;;1.70;;
27999;SDS011;15328;50.860;10.562;2024-03-23T08:27:39;0.27;;;0.20;;
27999;SDS011;15328;50.860;10.562;2024-03-23T08:32:40;0.82;;;0.30;;
27999;SDS011;15328;50.860;10.562;2024-03-23T08:37:40;0.25;;;0.10;;
27999;SDS011;15328;50.860;10.562;2024-03-23T08:42:40;0.60;;;0.30;;
27999;SDS011;15328;50.860;10.562;2024-03-23T08:47:41;1.07;;;0.30;;
27999;SDS011;15328;50.860;10.562;2024-03-23T08:52:41;1.08;;;0.30;;
27999;SDS011;15328;50.860;10.562;2024-03-23T08:57:41;2.75;;;0.55;;
27999;SDS011;15328;50.860;10.562;2024-03-23T09:02:42;2.47;;;0.43;;
27999;SDS011;15328;50.860;10.562;2024-03-23T09:07:45;1.10;;;0.57;;
27999;SDS011;15328;50.860;10.562;2024-03-23T09:12:45;3.57;;;0.80;;
27999;SDS011;15328;50.860;10.562;2024-03-23T09:17:45;2.53;;;0.60;;
27999;SDS011;15328;50.860;10.562;2024-03-23T09:22:47;3.47;;;0.90;;
27999;SDS011;15328;50.860;10.562;2024-03-23T09:27:48;6.10;;;1.00;;
27999;SDS011;15328;50.860;10.562;2024-03-23T09:32:50;4.20;;;0.93;;
27999;SDS011;15328;50.860;10.562;2024-03-23T09:37:50;4.18;;;0.90;;
27999;SDS011;15328;50.860;10.562;2024-03-23T09:42:51;8.63;;;1.10;;
27999;SDS011;15328;50.860;10.562;2024-03-23T09:47:51;5.07;;;1.23;;
27999;SDS011;15328;50.860;10.562;2024-03-23T09:52:52;5.68;;;1.70;;
27999;SDS011;15328;50.860;10.562;2024-03-23T09:57:52;7.30;;;2.22;;
27999;SDS011;15328;50.860;10.562;2024-03-23T10:02:55;7.07;;;2.30;;
27999;SDS011;15328;50.860;10.562;2024-03-23T10:07:55;8.88;;;2.88;;
27999;SDS011;15328;50.860;10.562;2024-03-23T10:12:55;8.63;;;2.90;;
27999;SDS011;15328;50.860;10.562;2024-03-23T10:17:57;8.07;;;3.08;;
27999;SDS011;15328;50.860;10.562;2024-03-23T10:22:57;11.25;;;3.80;;
27999;SDS011;15328;50.860;10.562;2024-03-23T10:27:58;11.10;;;3.53;;
27999;SDS011;15328;50.860;10.562;2024-03-23T10:33:10;8.85;;;3.60;;
27999;SDS011;15328;50.860;10.562;2024-03-23T10:38:11;10.55;;;3.63;;
27999;SDS011;15328;50.860;10.562;2024-03-23T10:43:11;13.10;;;3.53;;
27999;SDS011;15328;50.860;10.562;2024-03-23T10:48:12;9.57;;;3.60;;
27999;SDS011;15328;50.860;10.562;2024-03-23T10:53:12;14.13;;;3.40;;
27999;SDS011;15328;50.860;10.562;2024-03-23T10:58:14;9.77;;;4.10;;
27999;SDS011;15328;50.860;10.562;2024-03-23T11:03:33;9.02;;;3.45;;
27999;SDS011;15328;50.860;10.562;2024-03-23T11:08:35;8.73;;;3.03;;
27999;SDS011;15328;50.860;10.562;2024-03-23T11:13:37;6.25;;;2.20;;
27999;SDS011;15328;50.860;10.562;2024-03-23T11:18:37;5.18;;;2.22;;
27999;SDS011;15328;50.860;10.562;2024-03-23T11:23:38;5.65;;;2.20;;
27999;SDS011;15328;50.860;10.562;2024-03-23T11:28:38;8.80;;;2.90;;
27999;SDS011;15328;50.860;10.562;2024-03-23T11:33:39;4.30;;;2.13;;
27999;SDS011;15328;50.860;10.562;2024-03-23T11:38:39;6.70;;;2.37;;
27999;SDS011;15328;50.860;10.562;2024-03-23T11:43:39;7.13;;;2.53;;
27999;SDS011;15328;50.860;10.562;2024-03-23T11:48:40;9.02;;;2.10;;
27999;SDS011;15328;50.860;10.562;2024-03-23T11:53:40;6.15;;;1.60;;
27999;SDS011;15328;50.860;10.562;2024-03-23T11:58:40;6.83;;;1.80;;
27999;SDS011;15328;50.860;10.562;2024-03-23T12:03:43;5.80;;;1.80;;
27999;SDS011;15328;50.860;10.562;2024-03-23T12:08:44;6.10;;;1.50;;
27999;SDS011;15328;50.860;10.562;2024-03-23T12:13:45;3.38;;;1.40;;
27999;SDS011;15328;50.860;10.562;2024-03-23T12:18:49;3.70;;;1.30;;
27999;SDS011;15328;50.860;10.562;2024-03-23T12:23:53;3.63;;;1.17;;
27999;SDS011;15328;50.860;10.562;2024-03-23T12:28:54;4.60;;;1.48;;
27999;SDS011;15328;50.860;10.562;2024-03-23T12:33:54;4.40;;;1.50;;
27999;SDS011;15328;50.860;10.562;2024-03-23T12:38:54;4.47;;;1.57;;
27999;SDS011;15328;50.860;10.562;2024-03-23T12:43:54;3.87;;;1.23;;
27999;SDS011;15328;50.860;10.562;2024-03-23T12:48:55;4.35;;;1.63;;
27999;SDS011;15328;50.860;10.562;2024-03-23T12:53:55;4.60;;;1.65;;
27999;SDS011;15328;50.860;10.562;2024-03-23T12:58:56;6.00;;;1.87;;
27999;SDS011;15328;50.860;10.562;2024-03-23T13:03:57;4.07;;;1.50;;
27999;SDS011;15328;50.860;10.562;2024-03-23T13:08:59;7.03;;;1.70;;
27999;SDS011;15328;50.860;10.562;2024-03-23T13:14:03;6.25;;;2.08;;
27999;SDS011;15328;50.860;10.562;2024-03-23T13:19:04;8.75;;;2.17;;
27999;SDS011;15328;50.860;10.562;2024-03-23T13:24:04;5.50;;;1.80;;
27999;SDS011;15328;50.860;10.562;2024-03-23T13:29:05;4.28;;;1.33;;
27999;SDS011;15328;50.860;10.562;2024-03-23T13:34:05;4.93;;;1.30;;
27999;SDS011;15328;50.860;10.562;2024-03-23T13:39:05;4.87;;;1.63;;
27999;SDS011;15328;50.860;10.562;2024-03-23T13:44:11;4.20;;;1.88;;
27999;SDS011;15328;50.860;10.562;2024-03-23T13:49:26;5.95;;;1.85;;
27999;SDS011;15328;50.860;10.562;2024-03-23T13:54:30;3.65;;;1.50;;
27999;SDS011;15328;50.860;10.562;2024-03-23T13:59:31;3.35;;;1.23;;
27999;SDS011;15328;50.860;10.562;2024-03-23T14:04:32;2.13;;;1.10;;
27999;SDS011;15328;50.860;10.562;2024-03-23T14:09:32;3.83;;;1.33;;
27999;SDS011;15328;50.860;10.562;2024-03-23T14:14:32;3.38;;;1.42;;
27999;SDS011;15328;50.860;10.562;2024-03-23T14:19:33;3.50;;;1.33;;
27999;SDS011;15328;50.860;10.562;2024-03-23T14:24:33;4.43;;;1.50;;
27999;SDS011;15328;50.860;10.562;2024-03-23T14:29:33;4.87;;;1.23;;
27999;SDS011;15328;50.860;10.562;2024-03-23T14:34:34;3.55;;;1.50;;
27999;SDS011;15328;50.860;10.562;2024-03-23T14:39:35;5.22;;;1.20;;
27999;SDS011;15328;50.860;10.562;2024-03-23T14:44:35;3.88;;;1.55;;
27999;SDS011;15328;50.860;10.562;2024-03-23T14:49:35;5.80;;;1.57;;
27999;SDS011;15328;50.860;10.562;2024-03-23T14:54:36;3.10;;;1.47;;
27999;SDS011;15328;50.860;10.562;2024-03-23T14:59:36;4.55;;;1.50;;
27999;SDS011;15328;50.860;10.562;2024-03-23T15:04:40;1.77;;;0.90;;
27999;SDS011;15328;50.860;10.562;2024-03-23T15:09:43;3.05;;;0.80;;
27999;SDS011;15328;50.860;10.562;2024-03-23T15:14:44;3.53;;;1.07;;
27999;SDS011;15328;50.860;10.562;2024-03-23T15:19:44;2.67;;;0.90;;
27999;SDS011;15328;50.860;10.562;2024-03-23T15:24:44;2.83;;;1.10;;
27999;SDS011;15328;50.860;10.562;2024-03-23T15:29:45;4.55;;;1.30;;
27999;SDS011;15328;50.860;10.562;2024-03-23T15:34:46;4.30;;;1.08;;
27999;SDS011;15328;50.860;10.562;2024-03-23T15:39:46;2.00;;;0.80;;
27999;SDS011;15328;50.860;10.562;2024-03-23T15:44:47;2.55;;;0.90;;
27999;SDS011;15328;50.860;10.562;2024-03-23T15:49:47;2.55;;;0.90;;
27999;SDS011;15328;50.860;10.562;2024-03-23T15:54:48;2.03;;;0.80;;
27999;SDS011;15328;50.860;10.562;2024-03-23T15:59:48;2.07;;;0.90;;
27999;SDS011;15328;50.860;10.562;2024-03-23T16:04:48;2.80;;;0.90;;
27999;SDS011;15328;50.860;10.562;2024-03-23T16:09:50;2.40;;;0.90;;
27999;SDS011;15328;50.860;10.562;2024-03-23T16:14:50;1.77;;;1.15;;
27999;SDS011;15328;50.860;10.562;2024-03-23T16:19:51;2.87;;;1.10;;
27999;SDS011;15328;50.860;10.562;2024-03-23T16:24:51;3.53;;;1.15;;
27999;SDS011;15328;50.860;10.562;2024-03-23T16:29:51;2.37;;;0.90;;
27999;SDS011;15328;50.860;10.562;2024-03-23T16:34:52;3.50;;;1.00;;
27999;SDS011;15328;50.860;10.562;2024-03-23T16:39:52;3.25;;;1.17;;
27999;SDS011;15328;50.860;10.562;2024-03-23T16:44:53;2.47;;;1.00;;
27999;SDS011;15328;50.860;10.562;2024-03-23T16:49:53;1.63;;;1.13;;
27999;SDS011;15328;50.860;10.562;2024-03-23T16:54:53;3.37;;;1.43;;
27999;SDS011;15328;50.860;10.562;2024-03-23T16:59:54;4.23;;;1.17;;
27999;SDS011;15328;50.860;10.562;2024-03-23T17:04:55;4.50;;;1.40;;
27999;SDS011;15328;50.860;10.562;2024-03-23T17:09:55;3.15;;;1.02;;
27999;SDS011;15328;50.860;10.562;2024-03-23T17:14:55;3.15;;;1.40;;
27999;SDS011;15328;50.860;10.562;2024-03-23T17:20:02;5.07;;;1.30;;
27999;SDS011;15328;50.860;10.562;2024-03-23T17:25:03;1.80;;;1.00;;
27999;SDS011;15328;50.860;10.562;2024-03-23T17:30:04;3.03;;;1.42;;
27999;SDS011;15328;50.860;10.562;2024-03-23T17:35:05;3.17;;;1.10;;
27999;SDS011;15328;50.860;10.562;2024-03-23T17:40:06;4.65;;;2.30;;
27999;SDS011;15328;50.860;10.562;2024-03-23T17:45:11;2.22;;;1.00;;
27999;SDS011;15328;50.860;10.562;2024-03-23T17:50:13;2.13;;;1.35;;
27999;SDS011;15328;50.860;10.562;2024-03-23T17:55:14;4.28;;;1.55;;
27999;SDS011;15328;50.860;10.562;2024-03-23T18:00:15;3.83;;;1.50;;
27999;SDS011;15328;50.860;10.562;2024-03-23T18:05:15;3.03;;;1.50;;
27999;SDS011;15328;50.860;10.562;2024-03-23T18:10:19;2.40;;;1.60;;
27999;SDS011;15328;50.860;10.562;2024-03-23T18:15:19;6.00;;;1.90;;
27999;SDS011;15328;50.860;10.562;2024-03-23T18:20:20;3.70;;;1.63;;
27999;SDS011;15328;50.860;10.562;2024-03-23T18:25:21;5.35;;;1.70;;
27999;SDS011;15328;50.860;10.562;2024-03-23T18:30:21;8.57;;;4.97;;
27999;SDS011;15328;50.860;10.562;2024-03-23T18:35:22;4.43;;;2.80;;
27999;SDS011;15328;50.860;10.562;2024-03-23T18:40:22;7.07;;;3.00;;
27999;SDS011;15328;50.860;10.562;2024-03-23T18:45:22;4.68;;;1.90;;
27999;SDS011;15328;50.860;10.562;2024-03-23T18:50:23;6.07;;;2.10;;
27999;SDS011;15328;50.860;10.562;2024-03-23T18:55:23;6.32;;;2.50;;
27999;SDS011;15328;50.860;10.562;2024-03-23T19:00:24;7.47;;;2.80;;
27999;SDS011;15328;50.860;10.562;2024-03-23T19:05:25;5.13;;;2.22;;
27999;SDS011;15328;50.860;10.562;2024-03-23T19:10:25;5.32;;;2.58;;
27999;SDS011;15328;50.860;10.562;2024-03-23T19:15:26;8.10;;;3.75;;
27999;SDS011;15328;50.860;10.562;2024-03-23T19:20:27;5.38;;;3.95;;
27999;SDS011;15328;50.860;10.562;2024-03-23T19:25:27;4.75;;;3.45;;
27999;SDS011;15328;50.860;10.562;2024-03-23T19:30:28;4.70;;;2.47;;
27999;SDS011;15328;50.860;10.562;2024-03-23T19:35:29;4.45;;;1.92;;
27999;SDS011;15328;50.860;10.562;2024-03-23T19:40:30;2.80;;;2.08;;
27999;SDS011;15328;50.860;10.562;2024-03-23T19:45:30;3.20;;;1.80;;
27999;SDS011;15328;50.860;10.562;2024-03-23T19:50:31;3.22;;;1.70;;
27999;SDS011;15328;50.860;10.562;2024-03-23T19:55:34;2.28;;;1.38;;
27999;SDS011;15328;50.860;10.562;2024-03-23T20:00:37;3.70;;;1.70;;
27999;SDS011;15328;50.860;10.562;2024-03-23T20:05:39;3.40;;;1.40;;
27999;SDS011;15328;50.860;10.562;2024-03-23T20:10:45;3.43;;;1.47;;
27999;SDS011;15328;50.860;10.562;2024-03-23T20:15:53;2.17;;;1.30;;
27999;SDS011;15328;50.860;10.562;2024-03-23T20:20:54;2.60;;;1.60;;
27999;SDS011;15328;50.860;10.562;2024-03-23T20:25:57;2.97;;;1.25;;
27999;SDS011;15328;50.860;10.562;2024-03-23T20:30:59;3.70;;;1.20;;
27999;SDS011;15328;50.860;10.562;2024-03-23T20:36:02;3.72;;;1.63;;
27999;SDS011;15328;50.860;10.562;2024-03-23T20:41:02;4.68;;;2.00;;
27999;SDS011;15328;50.860;10.562;2024-03-23T20:46:03;4.72;;;2.03;;
27999;SDS011;15328;50.860;10.562;2024-03-23T20:51:03;3.22;;;1.92;;
27999;SDS011;15328;50.860;10.562;2024-03-23T20:56:04;6.15;;;1.90;;
27999;SDS011;15328;50.860;10.562;2024-03-23T21:01:05;5.75;;;1.73;;
27999;SDS011;15328;50.860;10.562;2024-03-23T21:06:09;3.00;;;1.50;;
27999;SDS011;15328;50.860;10.562;2024-03-23T21:11:10;3.90;;;1.70;;
27999;SDS011;15328;50.860;10.562;2024-03-23T21:16:11;3.22;;;1.67;;
27999;SDS011;15328;50.860;10.562;2024-03-23T21:21:11;3.53;;;1.77;;
27999;SDS011;15328;50.860;10.562;2024-03-23T21:26:12;8.18;;;3.50;;
27999;SDS011;15328;50.860;10.562;2024-03-23T21:31:12;4.22;;;2.10;;
27999;SDS011;15328;50.860;10.562;2024-03-23T21:36:13;3.38;;;1.63;;
27999;SDS011;15328;50.860;10.562;2024-03-23T21:41:13;3.60;;;2.37;;
27999;SDS011;15328;50.860;10.562;2024-03-23T21:46:14;6.90;;;3.13;;
27999;SDS011;15328;50.860;10.562;2024-03-23T21:51:14;4.63;;;2.53;;
27999;SDS011;15328;50.860;10.562;2024-03-23T21:56:15;4.85;;;1.67;;
27999;SDS011;15328;50.860;10.562;2024-03-23T22:01:15;5.97;;;2.33;;
27999;SDS011;15328;50.860;10.562;2024-03-23T22:06:17;4.68;;;1.40;;
27999;SDS011;15328;50.860;10.562;2024-03-23T22:11:18;4.28;;;1.65;;
27999;SDS011;15328;50.860;10.562;2024-03-23T22:16:18;3.92;;;1.40;;
27999;SDS011;15328;50.860;10.562;2024-03-23T22:21:18;2.65;;;1.35;;
27999;SDS011;15328;50.860;10.562;2024-03-23T22:26:19;2.00;;;1.30;;
27999;SDS011;15328;50.860;10.562;2024-03-23T22:31:20;4.88;;;1.63;;
27999;SDS011;15328;50.860;10.562;2024-03-23T22:36:20;2.90;;;1.30;;
27999;SDS011;15328;50.860;10.562;2024-03-23T22:41:22;4.82;;;1.60;;
27999;SDS011;15328;50.860;10.562;2024-03-23T22:46:22;3.42;;;1.38;;
27999;SDS011;15328;50.860;10.562;2024-03-23T22:51:23;2.08;;;1.33;;
27999;SDS011;15328;50.860;10.562;2024-03-23T22:56:23;3.25;;;1.35;;
27999;SDS011;15328;50.860;10.562;2024-03-23T23:01:23;2.83;;;1.37;;
27999;SDS011;15328;50.860;10.562;2024-03-23T23:06:24;2.47;;;1.30;;
27999;SDS011;15328;50.860;10.562;2024-03-23T23:11:24;2.53;;;1.30;;
27999;SDS011;15328;50.860;10.562;2024-03-23T23:16:24;4.30;;;1.87;;
27999;SDS011;15328;50.860;10.562;2024-03-23T23:21:25;3.07;;;1.40;;
27999;SDS011;15328;50.860;10.562;2024-03-23T23:26:26;6.40;;;1.80;;
27999;SDS011;15328;50.860;10.562;2024-03-23T23:31:26;3.38;;;1.48;;
27999;SDS011;15328;50.860;10.562;2024-03-23T23:36:26;5.05;;;1.75;;
27999;SDS011;15328;50.860;10.562;2024-03-23T23:41:27;5.40;;;1.63;;
27999;SDS011;15328;50.860;10.562;2024-03-23T23:46:27;2.80;;;1.70;;
27999;SDS011;15328;50.860;10.562;2024-03-23T23:51:28;2.85;;;1.70;;
27999;SDS011;15328;50.860;10.562;2024-03-23T23:56:28;2.20;;;1.35;;
